sensor_id;sensor_type;location;lat;lon;timestamp;temperature;humidity
71082;SHT31;58740;50.672;18.690;2023-11-21T00:00:22;8.19;89.80
71082;SHT31;58740;50.672;18.690;2023-11-21T00:03:15;8.20;89.80
71082;SHT31;58740;50.672;18.690;2023-11-21T00:05:49;8.19;89.80
71082;SHT31;58740;50.672;18.690;2023-11-21T00:08:22;8.20;89.79
71082;SHT31;58740;50.672;18.690;2023-11-21T00:10:56;8.20;89.75
71082;SHT31;58740;50.672;18.690;2023-11-21T00:13:30;8.19;89.75
71082;SHT31;58740;50.672;18.690;2023-11-21T00:16:04;8.19;89.77
71082;SHT31;58740;50.672;18.690;2023-11-21T00:18:38;8.17;89.79
71082;SHT31;58740;50.672;18.690;2023-11-21T00:21:12;8.17;89.81
71082;SHT31;58740;50.672;18.690;2023-11-21T00:23:45;8.16;89.89
71082;SHT31;58740;50.672;18.690;2023-11-21T00:26:19;8.15;89.82
71082;SHT31;58740;50.672;18.690;2023-11-21T00:28:53;8.13;89.84
71082;SHT31;58740;50.672;18.690;2023-11-21T00:31:26;8.11;89.86
71082;SHT31;58740;50.672;18.690;2023-11-21T00:34:00;8.10;89.89
71082;SHT31;58740;50.672;18.690;2023-11-21T00:36:34;8.08;89.89
71082;SHT31;58740;50.672;18.690;2023-11-21T00:39:07;8.08;89.90
71082;SHT31;58740;50.672;18.690;2023-11-21T00:41:41;8.07;89.93
71082;SHT31;58740;50.672;18.690;2023-11-21T00:44:14;8.05;89.96
71082;SHT31;58740;50.672;18.690;2023-11-21T00:46:47;8.05;90.00
71082;SHT31;58740;50.672;18.690;2023-11-21T00:49:21;8.05;90.00
71082;SHT31;58740;50.672;18.690;2023-11-21T00:51:54;8.04;90.02
71082;SHT31;58740;50.672;18.690;2023-11-21T00:54:28;8.04;89.99
71082;SHT31;58740;50.672;18.690;2023-11-21T00:57:03;8.03;89.99
71082;SHT31;58740;50.672;18.690;2023-11-21T00:59:37;8.02;90.00
71082;SHT31;58740;50.672;18.690;2023-11-21T01:02:10;8.02;90.02
71082;SHT31;58740;50.672;18.690;2023-11-21T01:04:44;8.02;90.00
71082;SHT31;58740;50.672;18.690;2023-11-21T01:07:17;8.02;90.00
71082;SHT31;58740;50.672;18.690;2023-11-21T01:09:51;8.00;89.97
71082;SHT31;58740;50.672;18.690;2023-11-21T01:12:25;8.00;90.00
71082;SHT31;58740;50.672;18.690;2023-11-21T01:14:58;8.00;89.99
71082;SHT31;58740;50.672;18.690;2023-11-21T01:17:32;8.00;90.00
71082;SHT31;58740;50.672;18.690;2023-11-21T01:20:06;8.01;89.96
71082;SHT31;58740;50.672;18.690;2023-11-21T01:22:42;8.00;89.93
71082;SHT31;58740;50.672;18.690;2023-11-21T01:25:18;8.02;89.95
71082;SHT31;58740;50.672;18.690;2023-11-21T01:27:51;8.01;89.90
71082;SHT31;58740;50.672;18.690;2023-11-21T01:30:25;8.01;89.90
71082;SHT31;58740;50.672;18.690;2023-11-21T01:32:58;8.01;89.89
71082;SHT31;58740;50.672;18.690;2023-11-21T01:35:32;8.01;89.90
71082;SHT31;58740;50.672;18.690;2023-11-21T01:38:05;8.00;89.89
71082;SHT31;58740;50.672;18.690;2023-11-21T01:40:38;8.00;89.89
71082;SHT31;58740;50.672;18.690;2023-11-21T01:43:12;7.99;89.90
71082;SHT31;58740;50.672;18.690;2023-11-21T01:45:46;8.01;89.90
71082;SHT31;58740;50.672;18.690;2023-11-21T01:48:20;7.99;89.86
71082;SHT31;58740;50.672;18.690;2023-11-21T01:50:53;7.99;89.89
71082;SHT31;58740;50.672;18.690;2023-11-21T01:53:27;8.01;89.90
71082;SHT31;58740;50.672;18.690;2023-11-21T01:56:01;8.00;89.87
71082;SHT31;58740;50.672;18.690;2023-11-21T01:58:36;8.00;89.85
71082;SHT31;58740;50.672;18.690;2023-11-21T02:01:10;8.01;89.88
71082;SHT31;58740;50.672;18.690;2023-11-21T02:03:43;8.02;89.80
71082;SHT31;58740;50.672;18.690;2023-11-21T02:06:17;8.02;89.80
71082;SHT31;58740;50.672;18.690;2023-11-21T02:08:51;8.00;89.80
71082;SHT31;58740;50.672;18.690;2023-11-21T02:11:24;7.99;89.79
71082;SHT31;58740;50.672;18.690;2023-11-21T02:13:58;7.99;89.79
71082;SHT31;58740;50.672;18.690;2023-11-21T02:16:32;7.99;89.80
71082;SHT31;58740;50.672;18.690;2023-11-21T02:19:06;7.99;89.78
71082;SHT31;58740;50.672;18.690;2023-11-21T02:21:43;7.98;89.75
71082;SHT31;58740;50.672;18.690;2023-11-21T02:24:19;7.97;89.79
71082;SHT31;58740;50.672;18.690;2023-11-21T02:26:53;7.97;89.80
71082;SHT31;58740;50.672;18.690;2023-11-21T02:29:27;7.98;89.73
71082;SHT31;58740;50.672;18.690;2023-11-21T02:32:00;7.98;89.74
71082;SHT31;58740;50.672;18.690;2023-11-21T02:34:34;7.98;89.75
71082;SHT31;58740;50.672;18.690;2023-11-21T02:37:08;7.97;89.73
71082;SHT31;58740;50.672;18.690;2023-11-21T02:39:41;7.98;89.69
71082;SHT31;58740;50.672;18.690;2023-11-21T02:42:14;7.97;89.67
71082;SHT31;58740;50.672;18.690;2023-11-21T02:44:48;7.95;89.64
71082;SHT31;58740;50.672;18.690;2023-11-21T02:47:21;7.95;89.70
71082;SHT31;58740;50.672;18.690;2023-11-21T02:49:54;7.93;89.68
71082;SHT31;58740;50.672;18.690;2023-11-21T02:52:28;7.94;89.70
71082;SHT31;58740;50.672;18.690;2023-11-21T02:55:02;7.93;89.73
71082;SHT31;58740;50.672;18.690;2023-11-21T02:57:37;7.93;89.74
71082;SHT31;58740;50.672;18.690;2023-11-21T03:00:10;7.93;89.70
71082;SHT31;58740;50.672;18.690;2023-11-21T03:02:45;7.93;89.71
71082;SHT31;58740;50.672;18.690;2023-11-21T03:05:19;7.93;89.69
71082;SHT31;58740;50.672;18.690;2023-11-21T03:07:52;7.92;89.70
71082;SHT31;58740;50.672;18.690;2023-11-21T03:10:25;7.92;89.70
71082;SHT31;58740;50.672;18.690;2023-11-21T03:12:59;7.91;89.70
71082;SHT31;58740;50.672;18.690;2023-11-21T03:15:33;7.91;89.70
71082;SHT31;58740;50.672;18.690;2023-11-21T03:18:06;7.92;89.70
71082;SHT31;58740;50.672;18.690;2023-11-21T03:20:40;7.91;89.67
71082;SHT31;58740;50.672;18.690;2023-11-21T03:23:16;7.90;89.65
71082;SHT31;58740;50.672;18.690;2023-11-21T03:25:49;7.90;89.68
71082;SHT31;58740;50.672;18.690;2023-11-21T03:28:22;7.91;89.70
71082;SHT31;58740;50.672;18.690;2023-11-21T03:30:56;7.91;89.62
71082;SHT31;58740;50.672;18.690;2023-11-21T03:33:30;7.91;89.66
71082;SHT31;58740;50.672;18.690;2023-11-21T03:36:04;7.91;89.65
71082;SHT31;58740;50.672;18.690;2023-11-21T03:38:38;7.91;89.66
71082;SHT31;58740;50.672;18.690;2023-11-21T03:41:12;7.93;89.61
71082;SHT31;58740;50.672;18.690;2023-11-21T03:43:45;7.92;89.60
71082;SHT31;58740;50.672;18.690;2023-11-21T03:46:18;7.92;89.60
71082;SHT31;58740;50.672;18.690;2023-11-21T03:48:52;7.92;89.59
71082;SHT31;58740;50.672;18.690;2023-11-21T03:51:25;7.92;89.59
71082;SHT31;58740;50.672;18.690;2023-11-21T03:53:58;7.91;89.60
71082;SHT31;58740;50.672;18.690;2023-11-21T03:56:32;7.92;89.59
71082;SHT31;58740;50.672;18.690;2023-11-21T03:59:05;7.92;89.55
71082;SHT31;58740;50.672;18.690;2023-11-21T04:01:38;7.91;89.55
71082;SHT31;58740;50.672;18.690;2023-11-21T04:04:12;7.90;89.59
71082;SHT31;58740;50.672;18.690;2023-11-21T04:06:45;7.91;89.60
71082;SHT31;58740;50.672;18.690;2023-11-21T04:09:20;7.89;89.60
71082;SHT31;58740;50.672;18.690;2023-11-21T04:11:54;7.89;89.56
71082;SHT31;58740;50.672;18.690;2023-11-21T04:14:28;7.88;89.60
71082;SHT31;58740;50.672;18.690;2023-11-21T04:17:02;7.90;89.55
71082;SHT31;58740;50.672;18.690;2023-11-21T04:19:36;7.89;89.51
71082;SHT31;58740;50.672;18.690;2023-11-21T04:22:10;7.89;89.50
71082;SHT31;58740;50.672;18.690;2023-11-21T04:24:43;7.88;89.50
71082;SHT31;58740;50.672;18.690;2023-11-21T04:27:18;7.88;89.50
71082;SHT31;58740;50.672;18.690;2023-11-21T04:29:51;7.89;89.50
71082;SHT31;58740;50.672;18.690;2023-11-21T04:32:24;7.88;89.47
71082;SHT31;58740;50.672;18.690;2023-11-21T04:34:57;7.88;89.50
71082;SHT31;58740;50.672;18.690;2023-11-21T04:37:32;7.89;89.50
71082;SHT31;58740;50.672;18.690;2023-11-21T04:40:07;7.90;89.50
71082;SHT31;58740;50.672;18.690;2023-11-21T04:42:42;7.89;89.43
71082;SHT31;58740;50.672;18.690;2023-11-21T04:45:15;7.89;89.42
71082;SHT31;58740;50.672;18.690;2023-11-21T04:47:49;7.90;89.39
71082;SHT31;58740;50.672;18.690;2023-11-21T04:50:22;7.89;89.40
71082;SHT31;58740;50.672;18.690;2023-11-21T04:52:56;7.89;89.36
71082;SHT31;58740;50.672;18.690;2023-11-21T04:55:29;7.89;89.38
71082;SHT31;58740;50.672;18.690;2023-11-21T04:58:02;7.88;89.36
71082;SHT31;58740;50.672;18.690;2023-11-21T05:00:37;7.88;89.40
71082;SHT31;58740;50.672;18.690;2023-11-21T05:03:10;7.89;89.40
71082;SHT31;58740;50.672;18.690;2023-11-21T05:05:44;7.89;89.36
71082;SHT31;58740;50.672;18.690;2023-11-21T05:08:17;7.88;89.32
71082;SHT31;58740;50.672;18.690;2023-11-21T05:10:51;7.88;89.36
71082;SHT31;58740;50.672;18.690;2023-11-21T05:13:24;7.89;89.40
71082;SHT31;58740;50.672;18.690;2023-11-21T05:15:58;7.89;89.39
71082;SHT31;58740;50.672;18.690;2023-11-21T05:18:33;7.91;89.33
71082;SHT31;58740;50.672;18.690;2023-11-21T05:21:06;7.90;89.30
71082;SHT31;58740;50.672;18.690;2023-11-21T05:23:39;7.92;89.32
71082;SHT31;58740;50.672;18.690;2023-11-21T05:26:13;7.91;89.30
71082;SHT31;58740;50.672;18.690;2023-11-21T05:28:46;7.92;89.30
71082;SHT31;58740;50.672;18.690;2023-11-21T05:31:20;7.91;89.26
71082;SHT31;58740;50.672;18.690;2023-11-21T05:33:53;7.91;89.30
71082;SHT31;58740;50.672;18.690;2023-11-21T05:36:27;7.93;89.30
71082;SHT31;58740;50.672;18.690;2023-11-21T05:39:00;7.93;89.27
71082;SHT31;58740;50.672;18.690;2023-11-21T05:41:34;7.93;89.25
71082;SHT31;58740;50.672;18.690;2023-11-21T05:44:07;7.92;89.23
71082;SHT31;58740;50.672;18.690;2023-11-21T05:46:41;7.93;89.27
71082;SHT31;58740;50.672;18.690;2023-11-21T05:49:14;7.92;89.29
71082;SHT31;58740;50.672;18.690;2023-11-21T05:51:50;7.93;89.23
71082;SHT31;58740;50.672;18.690;2023-11-21T05:54:24;7.93;89.23
71082;SHT31;58740;50.672;18.690;2023-11-21T05:56:58;7.91;89.23
71082;SHT31;58740;50.672;18.690;2023-11-21T05:59:31;7.91;89.24
71082;SHT31;58740;50.672;18.690;2023-11-21T06:02:05;7.91;89.24
71082;SHT31;58740;50.672;18.690;2023-11-21T06:04:38;7.91;89.25
71082;SHT31;58740;50.672;18.690;2023-11-21T06:07:11;7.90;89.22
71082;SHT31;58740;50.672;18.690;2023-11-21T06:09:45;7.90;89.30
71082;SHT31;58740;50.672;18.690;2023-11-21T06:12:19;7.91;89.30
71082;SHT31;58740;50.672;18.690;2023-11-21T06:14:52;7.90;89.26
71082;SHT31;58740;50.672;18.690;2023-11-21T06:17:25;7.90;89.25
71082;SHT31;58740;50.672;18.690;2023-11-21T06:19:59;7.92;89.28
71082;SHT31;58740;50.672;18.690;2023-11-21T06:22:38;7.92;89.24
71082;SHT31;58740;50.672;18.690;2023-11-21T06:25:13;7.92;89.28
71082;SHT31;58740;50.672;18.690;2023-11-21T06:27:47;7.92;89.28
71082;SHT31;58740;50.672;18.690;2023-11-21T06:30:23;7.94;89.24
71082;SHT31;58740;50.672;18.690;2023-11-21T06:32:57;7.93;89.20
71082;SHT31;58740;50.672;18.690;2023-11-21T06:35:31;7.94;89.20
71082;SHT31;58740;50.672;18.690;2023-11-21T06:38:04;7.93;89.20
71082;SHT31;58740;50.672;18.690;2023-11-21T06:40:38;7.94;89.20
71082;SHT31;58740;50.672;18.690;2023-11-21T06:43:11;7.93;89.25
71082;SHT31;58740;50.672;18.690;2023-11-21T06:45:46;7.94;89.23
71082;SHT31;58740;50.672;18.690;2023-11-21T06:48:19;7.94;89.21
71082;SHT31;58740;50.672;18.690;2023-11-21T06:50:53;7.93;89.22
71082;SHT31;58740;50.672;18.690;2023-11-21T06:53:26;7.93;89.30
71082;SHT31;58740;50.672;18.690;2023-11-21T06:56:00;7.94;89.24
71082;SHT31;58740;50.672;18.690;2023-11-21T06:58:34;7.94;89.22
71082;SHT31;58740;50.672;18.690;2023-11-21T07:01:09;7.94;89.23
71082;SHT31;58740;50.672;18.690;2023-11-21T07:03:43;7.93;89.21
71082;SHT31;58740;50.672;18.690;2023-11-21T07:06:17;7.95;89.21
71082;SHT31;58740;50.672;18.690;2023-11-21T07:08:50;7.95;89.22
71082;SHT31;58740;50.672;18.690;2023-11-21T07:11:24;7.97;89.23
71082;SHT31;58740;50.672;18.690;2023-11-21T07:13:57;7.97;89.24
71082;SHT31;58740;50.672;18.690;2023-11-21T07:16:34;7.99;89.24
71082;SHT31;58740;50.672;18.690;2023-11-21T07:19:08;8.01;89.19
71082;SHT31;58740;50.672;18.690;2023-11-21T07:21:42;8.00;89.13
71082;SHT31;58740;50.672;18.690;2023-11-21T07:24:15;7.99;89.16
71082;SHT31;58740;50.672;18.690;2023-11-21T07:26:51;8.01;89.19
71082;SHT31;58740;50.672;18.690;2023-11-21T07:29:25;8.02;89.16
71082;SHT31;58740;50.672;18.690;2023-11-21T07:31:59;8.02;89.10
71082;SHT31;58740;50.672;18.690;2023-11-21T07:34:33;8.02;89.10
71082;SHT31;58740;50.672;18.690;2023-11-21T07:37:06;8.04;89.11
71082;SHT31;58740;50.672;18.690;2023-11-21T07:39:40;8.04;89.03
71082;SHT31;58740;50.672;18.690;2023-11-21T07:42:14;8.06;88.90
71082;SHT31;58740;50.672;18.690;2023-11-21T07:44:47;8.07;88.89
71082;SHT31;58740;50.672;18.690;2023-11-21T07:47:20;8.08;88.83
71082;SHT31;58740;50.672;18.690;2023-11-21T07:49:56;8.08;88.71
71082;SHT31;58740;50.672;18.690;2023-11-21T07:52:32;8.08;88.70
71082;SHT31;58740;50.672;18.690;2023-11-21T07:55:05;8.08;88.68
71082;SHT31;58740;50.672;18.690;2023-11-21T07:57:40;8.08;88.68
71082;SHT31;58740;50.672;18.690;2023-11-21T08:00:14;8.09;88.69
71082;SHT31;58740;50.672;18.690;2023-11-21T08:02:50;8.11;88.70
71082;SHT31;58740;50.672;18.690;2023-11-21T08:05:23;8.12;88.70
71082;SHT31;58740;50.672;18.690;2023-11-21T08:08:05;8.13;88.61
71082;SHT31;58740;50.672;18.690;2023-11-21T08:10:39;8.11;88.57
71082;SHT31;58740;50.672;18.690;2023-11-21T08:13:15;8.12;88.61
71082;SHT31;58740;50.672;18.690;2023-11-21T08:15:48;8.13;88.65
71082;SHT31;58740;50.672;18.690;2023-11-21T08:18:24;8.15;88.68
71082;SHT31;58740;50.672;18.690;2023-11-21T08:20:57;8.17;88.61
71082;SHT31;58740;50.672;18.690;2023-11-21T08:23:32;8.17;88.68
71082;SHT31;58740;50.672;18.690;2023-11-21T08:26:06;8.19;88.60
71082;SHT31;58740;50.672;18.690;2023-11-21T08:28:39;8.20;88.53
71082;SHT31;58740;50.672;18.690;2023-11-21T08:31:12;8.18;88.55
71082;SHT31;58740;50.672;18.690;2023-11-21T08:33:46;8.18;88.55
71082;SHT31;58740;50.672;18.690;2023-11-21T08:36:19;8.19;88.59
71082;SHT31;58740;50.672;18.690;2023-11-21T08:38:53;8.20;88.58
71082;SHT31;58740;50.672;18.690;2023-11-21T08:41:26;8.22;88.47
71082;SHT31;58740;50.672;18.690;2023-11-21T08:43:59;8.21;88.42
71082;SHT31;58740;50.672;18.690;2023-11-21T08:46:36;8.21;88.43
71082;SHT31;58740;50.672;18.690;2023-11-21T08:49:10;8.21;88.50
71082;SHT31;58740;50.672;18.690;2023-11-21T08:51:45;8.22;88.50
71082;SHT31;58740;50.672;18.690;2023-11-21T08:54:18;8.22;88.50
71082;SHT31;58740;50.672;18.690;2023-11-21T08:56:52;8.23;88.48
71082;SHT31;58740;50.672;18.690;2023-11-21T08:59:26;8.23;88.40
71082;SHT31;58740;50.672;18.690;2023-11-21T09:02:00;8.23;88.35
71082;SHT31;58740;50.672;18.690;2023-11-21T09:04:33;8.23;88.38
71082;SHT31;58740;50.672;18.690;2023-11-21T09:07:09;8.24;88.41
71082;SHT31;58740;50.672;18.690;2023-11-21T09:09:42;8.26;88.49
71082;SHT31;58740;50.672;18.690;2023-11-21T09:12:16;8.28;88.45
71082;SHT31;58740;50.672;18.690;2023-11-21T09:14:49;8.30;88.50
71082;SHT31;58740;50.672;18.690;2023-11-21T09:17:23;8.31;88.51
71082;SHT31;58740;50.672;18.690;2023-11-21T09:19:57;8.33;88.50
71082;SHT31;58740;50.672;18.690;2023-11-21T09:22:32;8.34;88.46
71082;SHT31;58740;50.672;18.690;2023-11-21T09:25:06;8.36;88.47
71082;SHT31;58740;50.672;18.690;2023-11-21T09:27:41;8.38;88.41
71082;SHT31;58740;50.672;18.690;2023-11-21T09:30:15;8.40;88.45
71082;SHT31;58740;50.672;18.690;2023-11-21T09:32:49;8.41;88.37
71082;SHT31;58740;50.672;18.690;2023-11-21T09:35:22;8.42;88.38
71082;SHT31;58740;50.672;18.690;2023-11-21T09:37:56;8.41;88.28
71082;SHT31;58740;50.672;18.690;2023-11-21T09:40:34;8.41;88.32
71082;SHT31;58740;50.672;18.690;2023-11-21T09:43:09;8.41;88.31
71082;SHT31;58740;50.672;18.690;2023-11-21T09:45:51;8.41;88.30
71082;SHT31;58740;50.672;18.690;2023-11-21T09:48:29;8.42;88.31
71082;SHT31;58740;50.672;18.690;2023-11-21T09:51:05;8.43;88.28
71082;SHT31;58740;50.672;18.690;2023-11-21T09:53:41;8.43;88.23
71082;SHT31;58740;50.672;18.690;2023-11-21T09:56:18;8.43;88.28
71082;SHT31;58740;50.672;18.690;2023-11-21T09:58:53;8.44;88.28
71082;SHT31;58740;50.672;18.690;2023-11-21T10:01:32;8.44;88.24
71082;SHT31;58740;50.672;18.690;2023-11-21T10:04:08;8.44;88.24
71082;SHT31;58740;50.672;18.690;2023-11-21T10:06:42;8.45;88.32
71082;SHT31;58740;50.672;18.690;2023-11-21T10:09:18;8.46;88.28
71082;SHT31;58740;50.672;18.690;2023-11-21T10:11:52;8.47;88.29
71082;SHT31;58740;50.672;18.690;2023-11-21T10:14:29;8.47;88.22
71082;SHT31;58740;50.672;18.690;2023-11-21T10:17:04;8.47;88.28
71082;SHT31;58740;50.672;18.690;2023-11-21T10:19:41;8.48;88.20
71082;SHT31;58740;50.672;18.690;2023-11-21T10:22:16;8.49;88.23
71082;SHT31;58740;50.672;18.690;2023-11-21T10:24:52;8.48;88.26
71082;SHT31;58740;50.672;18.690;2023-11-21T10:27:26;8.49;88.28
71082;SHT31;58740;50.672;18.690;2023-11-21T10:30:01;8.48;88.20
71082;SHT31;58740;50.672;18.690;2023-11-21T10:32:36;8.48;88.21
71082;SHT31;58740;50.672;18.690;2023-11-21T10:35:10;8.49;88.25
71082;SHT31;58740;50.672;18.690;2023-11-21T10:37:44;8.49;88.28
71082;SHT31;58740;50.672;18.690;2023-11-21T10:40:32;8.48;88.24
71082;SHT31;58740;50.672;18.690;2023-11-21T10:43:08;8.48;88.28
71082;SHT31;58740;50.672;18.690;2023-11-21T10:45:44;8.48;88.29
71082;SHT31;58740;50.672;18.690;2023-11-21T10:48:17;8.48;88.27
71082;SHT31;58740;50.672;18.690;2023-11-21T10:50:52;8.49;88.21
71082;SHT31;58740;50.672;18.690;2023-11-21T10:53:29;8.48;88.19
71082;SHT31;58740;50.672;18.690;2023-11-21T10:56:05;8.49;88.20
71082;SHT31;58740;50.672;18.690;2023-11-21T10:58:46;8.49;88.20
71082;SHT31;58740;50.672;18.690;2023-11-21T11:01:23;8.48;88.27
71082;SHT31;58740;50.672;18.690;2023-11-21T11:04:01;8.49;88.22
71082;SHT31;58740;50.672;18.690;2023-11-21T11:06:43;8.48;88.18
71082;SHT31;58740;50.672;18.690;2023-11-21T11:09:21;8.48;88.16
71082;SHT31;58740;50.672;18.690;2023-11-21T11:11:55;8.48;88.18
71082;SHT31;58740;50.672;18.690;2023-11-21T11:14:30;8.45;88.19
71082;SHT31;58740;50.672;18.690;2023-11-21T11:17:05;8.45;88.20
71082;SHT31;58740;50.672;18.690;2023-11-21T11:19:40;8.46;88.20
71082;SHT31;58740;50.672;18.690;2023-11-21T11:22:19;8.47;88.21
71082;SHT31;58740;50.672;18.690;2023-11-21T11:25:21;8.47;88.20
71082;SHT31;58740;50.672;18.690;2023-11-21T11:28:10;8.45;88.18
71082;SHT31;58740;50.672;18.690;2023-11-21T11:30:55;8.45;88.20
71082;SHT31;58740;50.672;18.690;2023-11-21T11:33:38;8.43;88.17
71082;SHT31;58740;50.672;18.690;2023-11-21T11:36:18;8.41;88.19
71082;SHT31;58740;50.672;18.690;2023-11-21T11:38:59;8.40;88.25
71082;SHT31;58740;50.672;18.690;2023-11-21T11:41:34;8.41;88.30
71082;SHT31;58740;50.672;18.690;2023-11-21T11:44:09;8.41;88.38
71082;SHT31;58740;50.672;18.690;2023-11-21T11:47:24;8.41;88.47
71082;SHT31;58740;50.672;18.690;2023-11-21T11:50:05;8.41;88.44
71082;SHT31;58740;50.672;18.690;2023-11-21T11:52:42;8.42;88.47
71082;SHT31;58740;50.672;18.690;2023-11-21T11:55:20;8.41;88.41
71082;SHT31;58740;50.672;18.690;2023-11-21T11:57:54;8.41;88.45
71082;SHT31;58740;50.672;18.690;2023-11-21T12:00:34;8.40;88.44
71082;SHT31;58740;50.672;18.690;2023-11-21T12:03:10;8.40;88.49
71082;SHT31;58740;50.672;18.690;2023-11-21T12:05:46;8.42;88.50
71082;SHT31;58740;50.672;18.690;2023-11-21T12:08:27;8.43;88.49
71082;SHT31;58740;50.672;18.690;2023-11-21T12:11:03;8.43;88.51
71082;SHT31;58740;50.672;18.690;2023-11-21T12:13:39;8.45;88.49
71082;SHT31;58740;50.672;18.690;2023-11-21T12:16:14;8.47;88.44
71082;SHT31;58740;50.672;18.690;2023-11-21T12:18:50;8.48;88.41
71082;SHT31;58740;50.672;18.690;2023-11-21T12:21:23;8.49;88.47
71082;SHT31;58740;50.672;18.690;2023-11-21T12:23:57;8.50;88.50
71082;SHT31;58740;50.672;18.690;2023-11-21T12:26:31;8.51;88.46
71082;SHT31;58740;50.672;18.690;2023-11-21T12:29:05;8.52;88.45
71082;SHT31;58740;50.672;18.690;2023-11-21T12:31:39;8.54;88.47
71082;SHT31;58740;50.672;18.690;2023-11-21T12:34:13;8.54;88.48
71082;SHT31;58740;50.672;18.690;2023-11-21T12:36:47;8.55;88.42
71082;SHT31;58740;50.672;18.690;2023-11-21T12:39:23;8.53;88.40
71082;SHT31;58740;50.672;18.690;2023-11-21T12:41:58;8.53;88.40
71082;SHT31;58740;50.672;18.690;2023-11-21T12:44:31;8.51;88.35
71082;SHT31;58740;50.672;18.690;2023-11-21T12:47:05;8.52;88.40
71082;SHT31;58740;50.672;18.690;2023-11-21T12:54:12;8.46;88.50
71082;SHT31;58740;50.672;18.690;2023-11-21T12:56:46;8.45;88.49
71082;SHT31;58740;50.672;18.690;2023-11-21T12:59:21;8.43;88.58
71082;SHT31;58740;50.672;18.690;2023-11-21T13:01:55;8.44;88.67
71082;SHT31;58740;50.672;18.690;2023-11-21T13:04:34;8.47;88.69
71082;SHT31;58740;50.672;18.690;2023-11-21T13:07:08;8.49;88.60
71082;SHT31;58740;50.672;18.690;2023-11-21T13:09:43;8.50;88.65
71082;SHT31;58740;50.672;18.690;2023-11-21T13:12:17;8.51;88.61
71082;SHT31;58740;50.672;18.690;2023-11-21T13:14:57;8.52;88.64
71082;SHT31;58740;50.672;18.690;2023-11-21T13:17:39;8.54;88.65
71082;SHT31;58740;50.672;18.690;2023-11-21T13:20:13;8.54;88.57
71082;SHT31;58740;50.672;18.690;2023-11-21T13:22:49;8.53;88.52
71082;SHT31;58740;50.672;18.690;2023-11-21T13:25:26;8.50;88.59
71082;SHT31;58740;50.672;18.690;2023-11-21T13:28:01;8.45;88.47
71082;SHT31;58740;50.672;18.690;2023-11-21T13:30:38;8.34;88.37
71082;SHT31;58740;50.672;18.690;2023-11-21T13:33:15;8.25;88.43
71082;SHT31;58740;50.672;18.690;2023-11-21T13:35:56;8.10;88.44
71082;SHT31;58740;50.672;18.690;2023-11-21T13:38:31;8.01;88.69
71082;SHT31;58740;50.672;18.690;2023-11-21T13:41:11;7.92;88.86
71082;SHT31;58740;50.672;18.690;2023-11-21T13:43:47;7.86;89.00
71082;SHT31;58740;50.672;18.690;2023-11-21T13:46:31;7.79;89.06
71082;SHT31;58740;50.672;18.690;2023-11-21T13:49:11;7.72;89.07
71082;SHT31;58740;50.672;18.690;2023-11-21T13:51:46;7.66;89.21
71082;SHT31;58740;50.672;18.690;2023-11-21T13:54:23;7.61;89.30
71082;SHT31;58740;50.672;18.690;2023-11-21T13:56:58;7.56;89.34
71082;SHT31;58740;50.672;18.690;2023-11-21T13:59:34;7.53;89.37
71082;SHT31;58740;50.672;18.690;2023-11-21T14:02:08;7.49;89.39
71082;SHT31;58740;50.672;18.690;2023-11-21T14:04:47;7.49;89.39
71082;SHT31;58740;50.672;18.690;2023-11-21T14:07:24;7.45;89.29
71082;SHT31;58740;50.672;18.690;2023-11-21T14:10:05;7.39;89.23
71082;SHT31;58740;50.672;18.690;2023-11-21T14:12:43;7.33;89.20
71082;SHT31;58740;50.672;18.690;2023-11-21T14:15:16;7.27;89.08
71082;SHT31;58740;50.672;18.690;2023-11-21T14:17:51;7.21;89.17
71082;SHT31;58740;50.672;18.690;2023-11-21T14:20:25;7.16;89.17
71082;SHT31;58740;50.672;18.690;2023-11-21T14:22:59;7.09;89.14
71082;SHT31;58740;50.672;18.690;2023-11-21T14:25:33;7.05;89.24
71082;SHT31;58740;50.672;18.690;2023-11-21T14:28:08;7.00;89.24
71082;SHT31;58740;50.672;18.690;2023-11-21T14:30:42;6.94;89.08
71082;SHT31;58740;50.672;18.690;2023-11-21T14:33:15;6.86;89.06
71082;SHT31;58740;50.672;18.690;2023-11-21T14:35:49;6.81;89.12
71082;SHT31;58740;50.672;18.690;2023-11-21T14:38:22;6.77;89.24
71082;SHT31;58740;50.672;18.690;2023-11-21T14:40:57;6.73;89.16
71082;SHT31;58740;50.672;18.690;2023-11-21T14:43:30;6.69;89.06
71082;SHT31;58740;50.672;18.690;2023-11-21T14:46:04;6.61;88.95
71082;SHT31;58740;50.672;18.690;2023-11-21T14:48:39;6.55;88.95
71082;SHT31;58740;50.672;18.690;2023-11-21T14:51:15;6.49;88.95
71082;SHT31;58740;50.672;18.690;2023-11-21T14:53:57;6.46;89.15
71082;SHT31;58740;50.672;18.690;2023-11-21T14:56:35;6.43;89.10
71082;SHT31;58740;50.672;18.690;2023-11-21T14:59:13;6.42;88.95
71082;SHT31;58740;50.672;18.690;2023-11-21T15:01:46;6.37;88.96
71082;SHT31;58740;50.672;18.690;2023-11-21T15:04:25;6.35;88.97
71082;SHT31;58740;50.672;18.690;2023-11-21T15:07:05;6.34;88.90
71082;SHT31;58740;50.672;18.690;2023-11-21T15:09:40;6.29;88.72
71082;SHT31;58740;50.672;18.690;2023-11-21T15:12:14;6.29;88.83
71082;SHT31;58740;50.672;18.690;2023-11-21T15:14:50;6.29;88.84
71082;SHT31;58740;50.672;18.690;2023-11-21T15:17:26;6.30;88.59
71082;SHT31;58740;50.672;18.690;2023-11-21T15:20:01;6.23;88.20
71082;SHT31;58740;50.672;18.690;2023-11-21T15:22:38;6.10;87.68
71082;SHT31;58740;50.672;18.690;2023-11-21T15:25:11;5.96;87.87
71082;SHT31;58740;50.672;18.690;2023-11-21T15:27:45;5.86;87.98
71082;SHT31;58740;50.672;18.690;2023-11-21T15:30:19;5.80;88.17
71082;SHT31;58740;50.672;18.690;2023-11-21T15:32:54;5.76;88.18
71082;SHT31;58740;50.672;18.690;2023-11-21T15:35:28;5.73;88.40
71082;SHT31;58740;50.672;18.690;2023-11-21T15:38:02;5.70;88.04
71082;SHT31;58740;50.672;18.690;2023-11-21T15:40:36;5.66;88.25
71082;SHT31;58740;50.672;18.690;2023-11-21T15:43:12;5.67;88.38
71082;SHT31;58740;50.672;18.690;2023-11-21T15:45:46;5.70;88.21
71082;SHT31;58740;50.672;18.690;2023-11-21T15:48:19;5.65;87.98
71082;SHT31;58740;50.672;18.690;2023-11-21T15:50:52;5.61;87.87
71082;SHT31;58740;50.672;18.690;2023-11-21T15:53:27;5.60;88.03
71082;SHT31;58740;50.672;18.690;2023-11-21T15:56:01;5.58;87.83
71082;SHT31;58740;50.672;18.690;2023-11-21T15:58:41;5.55;87.96
71082;SHT31;58740;50.672;18.690;2023-11-21T16:01:18;5.57;88.01
71082;SHT31;58740;50.672;18.690;2023-11-21T16:03:54;5.54;87.60
71082;SHT31;58740;50.672;18.690;2023-11-21T16:06:29;5.52;87.67
71082;SHT31;58740;50.672;18.690;2023-11-21T16:09:08;5.50;87.46
71082;SHT31;58740;50.672;18.690;2023-11-21T16:11:50;5.43;87.37
71082;SHT31;58740;50.672;18.690;2023-11-21T16:14:29;5.44;87.71
71082;SHT31;58740;50.672;18.690;2023-11-21T16:17:09;5.44;87.41
71082;SHT31;58740;50.672;18.690;2023-11-21T16:19:46;5.39;87.21
71082;SHT31;58740;50.672;18.690;2023-11-21T16:22:21;5.35;87.05